createdAt,value
2022-11-17T06:28:56.823Z,13.63
2022-11-17T06:34:01.922Z,13.05
2022-11-17T06:39:04.137Z,13.43
2022-11-17T06:44:06.224Z,13.10
2022-11-17T06:49:08.660Z,13.83
2022-11-17T06:54:12.379Z,14.43
2022-11-17T06:59:16.055Z,14.70
2022-11-17T07:04:18.206Z,15.90
2022-11-17T07:09:20.277Z,15.18
2022-11-17T07:14:22.363Z,14.95
2022-11-17T07:19:24.392Z,12.77
2022-11-17T07:24:26.446Z,13.38
2022-11-17T07:29:30.499Z,12.15
2022-11-17T07:34:32.572Z,11.77
2022-11-17T07:39:34.616Z,12.70
2022-11-17T07:44:36.693Z,10.85
2022-11-17T07:49:38.735Z,12.65
2022-11-17T07:54:40.814Z,11.63
2022-11-17T07:59:42.869Z,11.00
2022-11-17T08:04:44.910Z,10.38
2022-11-17T08:09:46.960Z,10.10
2022-11-17T08:14:49.937Z,9.55
2022-11-17T08:19:52.061Z,9.50
2022-11-17T08:24:54.186Z,9.87
2022-11-17T08:29:56.247Z,9.37
2022-11-17T08:34:58.261Z,9.27
2022-11-17T08:40:00.365Z,9.60
2022-11-17T08:45:02.398Z,8.13
2022-11-17T08:50:06.215Z,8.27
2022-11-17T08:55:08.710Z,8.52
2022-11-17T09:00:11.574Z,8.20
2022-11-17T09:05:13.718Z,7.32
2022-11-17T09:10:15.789Z,6.90
2022-11-17T09:15:17.961Z,6.70
2022-11-17T09:48:45.742Z,6.60
2022-11-17T09:54:01.683Z,6.40
2022-11-17T09:59:06.584Z,5.55
2022-11-17T10:04:14.251Z,5.32
2022-11-17T10:09:41.524Z,4.57
2022-11-17T10:14:43.765Z,5.20
2022-11-17T10:19:45.807Z,5.72
2022-11-17T10:24:55.331Z,5.50
2022-11-17T10:30:19.068Z,5.60
2022-11-17T10:35:26.955Z,6.60
2022-11-17T10:40:52.954Z,5.72
2022-11-17T10:46:07.426Z,5.10
2022-11-17T10:51:19.489Z,5.25
2022-11-17T10:56:21.957Z,5.87
2022-11-17T11:01:38.064Z,5.57
2022-11-17T11:06:40.151Z,5.40
2022-11-17T11:11:48.991Z,5.60
2022-11-17T11:16:51.295Z,6.10
2022-11-17T11:22:31.138Z,5.90
2022-11-17T11:27:59.948Z,5.80
2022-11-17T11:33:17.321Z,6.07
2022-11-17T11:38:50.079Z,6.03
2022-11-17T11:44:16.711Z,6.90
2022-11-17T11:49:53.037Z,7.40
2022-11-17T11:55:14.491Z,6.00
2022-11-17T12:00:17.829Z,5.68
2022-11-17T12:05:28.790Z,6.60
2022-11-17T12:10:34.335Z,5.77
2022-11-17T12:15:37.153Z,7.27
2022-11-17T12:20:39.114Z,6.30
2022-11-17T12:25:54.730Z,7.35
2022-11-17T12:31:24.347Z,6.97
2022-11-17T12:36:31.157Z,6.55
2022-11-17T12:41:48.538Z,6.35
2022-11-17T12:47:00.859Z,8.17
2022-11-17T12:52:11.744Z,7.97
2022-11-17T12:57:20.937Z,7.30
2022-11-17T13:02:32.609Z,7.00
2022-11-17T13:07:34.722Z,6.47
2022-11-17T13:12:37.291Z,7.37
2022-11-17T13:17:42.492Z,6.75
2022-11-17T13:23:01.989Z,6.07
2022-11-17T13:28:05.407Z,6.47
2022-11-17T13:33:12.388Z,6.22
2022-11-17T13:38:22.499Z,7.00
2022-11-17T13:43:26.314Z,7.10
2022-11-17T13:48:37.080Z,7.70
2022-11-17T13:53:50.292Z,6.33
2022-11-17T13:58:53.263Z,6.77
2022-11-17T14:04:19.495Z,8.20
2022-11-17T14:09:23.927Z,7.30
2022-11-17T14:14:36.359Z,7.57
2022-11-17T14:19:38.656Z,7.85
2022-11-17T14:24:40.984Z,8.25
2022-11-17T14:29:43.026Z,7.73
2022-11-17T14:34:45.028Z,7.65
2022-11-17T14:39:47.039Z,8.90
2022-11-17T14:44:49.223Z,8.67
2022-11-17T14:49:51.359Z,7.20
2022-11-17T14:54:53.429Z,7.57
2022-11-17T14:59:55.451Z,8.95
2022-11-17T15:04:59.856Z,8.27
2022-11-17T15:10:03.582Z,10.23
2022-11-17T15:15:06.402Z,10.32
2022-11-17T15:20:09.701Z,9.30
2022-11-17T15:25:12.229Z,8.73
2022-11-17T15:30:14.542Z,9.35
2022-11-17T15:35:16.579Z,8.83
2022-11-17T15:40:19.710Z,10.03
2022-11-17T15:45:21.858Z,9.85
2022-11-17T15:50:23.930Z,10.05
2022-11-17T15:55:25.980Z,10.23
2022-11-17T16:00:28.025Z,9.68
2022-11-17T16:05:30.071Z,10.07
2022-11-17T16:10:32.125Z,10.50
2022-11-17T16:15:34.121Z,10.90
2022-11-17T16:20:36.298Z,10.13
2022-11-17T16:25:42.245Z,10.33
2022-11-17T16:30:44.647Z,11.83
2022-11-17T16:35:46.750Z,11.35
2022-11-17T16:40:48.865Z,12.50
2022-11-17T16:45:50.924Z,11.90
2022-11-17T16:50:52.984Z,12.68
2022-11-17T16:55:54.988Z,12.30
2022-11-17T17:00:57.668Z,12.77
2022-11-17T17:06:03.909Z,11.98
2022-11-17T17:11:15.911Z,13.00
2022-11-17T17:16:19.648Z,11.70
2022-11-17T17:21:23.463Z,12.00
2022-11-17T17:26:27.601Z,12.30
2022-11-17T17:31:32.742Z,11.60
2022-11-17T17:36:35.347Z,12.50
2022-11-17T17:41:41.032Z,12.52
2022-11-17T17:46:43.305Z,12.40
2022-11-17T17:51:45.607Z,11.20
2022-11-17T17:56:48.235Z,12.30
2022-11-17T18:01:50.339Z,13.45
2022-11-17T18:06:52.492Z,12.83
2022-11-17T18:11:54.522Z,11.67
2022-11-17T18:16:56.637Z,12.13
2022-11-17T18:21:58.763Z,11.65
2022-11-17T18:27:00.816Z,11.60
2022-11-17T18:32:02.980Z,11.60
2022-11-17T18:37:05.133Z,11.90
2022-11-17T18:42:07.337Z,12.03
2022-11-17T18:47:09.383Z,9.95
2022-11-17T18:52:11.507Z,11.55
2022-11-17T18:57:13.600Z,11.77
2022-11-17T19:02:15.831Z,11.93
2022-11-17T19:07:17.885Z,12.27
2022-11-17T19:12:20.066Z,13.05
2022-11-17T19:17:22.135Z,13.63
2022-11-17T19:22:24.218Z,12.68
2022-11-17T19:27:26.657Z,12.60
2022-11-17T19:32:28.772Z,12.90
2022-11-17T19:37:30.856Z,12.35
2022-11-17T19:42:32.992Z,13.52
2022-11-17T19:47:35.811Z,12.73
2022-11-17T19:52:37.833Z,13.70
2022-11-17T19:57:39.887Z,13.13
2022-11-17T20:02:41.926Z,13.57
2022-11-17T20:07:44.047Z,12.53
2022-11-17T20:12:46.488Z,14.10
2022-11-17T20:17:48.527Z,14.80
2022-11-17T20:22:50.722Z,14.10
2022-11-17T20:27:52.779Z,14.32
2022-11-17T20:32:54.767Z,14.60
2022-11-17T20:37:56.819Z,14.40
2022-11-17T20:42:59.155Z,14.60
2022-11-17T20:48:01.191Z,14.93
2022-11-17T20:53:03.211Z,13.82
2022-11-17T20:58:05.235Z,14.43
2022-11-17T21:03:08.315Z,14.50
2022-11-17T21:08:10.506Z,13.68
2022-11-17T21:13:12.524Z,13.43
2022-11-17T21:18:24.584Z,13.68
